Time;durP1;ratioP1;P1;durP2;ratioP2;P2;SDS_P1;SDS_P2;PMS_P1;PMS_P2;Temp;Humidity;BMP_temperature;BMP_pressure;BME280_temperature;BME280_humidity;BME280_pressure;Samples;Min_cycle;Max_cycle;Signal;HPM_P1;HPM_P2
2021/12/29 00:01:16;;;;;;;63.20;36.67;;;7.00;94.50;;;;;;5064042;28;20201;-70
2021/12/29 00:03:44;;;;;;;57.83;37.07;;;7.00;94.50;;;;;;5065996;28;20648;-70
2021/12/29 00:06:11;;;;;;;62.63;37.77;;;7.00;94.50;;;;;;5063058;28;20643;-70
2021/12/29 00:08:38;;;;;;;65.53;38.00;;;7.10;94.50;;;;;;5060277;28;20208;-70
2021/12/29 00:11:06;;;;;;;65.90;38.23;;;7.10;94.60;;;;;;5059895;28;20264;-70
2021/12/29 00:13:34;;;;;;;67.80;38.57;;;7.10;94.60;;;;;;5059497;28;20243;-70
2021/12/29 00:16:02;;;;;;;72.47;39.37;;;7.10;94.60;;;;;;5058716;28;20764;-70
2021/12/29 00:18:31;;;;;;;51.93;32.97;;;7.20;94.60;;;;;;5057353;28;20217;-70
2021/12/29 00:21:01;;;;;;;54.33;34.23;;;7.20;94.60;;;;;;5057870;28;20557;-70
2021/12/29 00:23:28;;;;;;;55.30;33.47;;;7.20;94.60;;;;;;5057563;28;20704;-70
2021/12/29 00:26:06;;;;;;;51.10;31.57;;;7.20;94.60;;;;;;5050781;28;20346;-69
2021/12/29 00:28:33;;;;;;;56.63;34.33;;;7.20;94.50;;;;;;5056588;28;20220;-70
2021/12/29 00:31:00;;;;;;;56.50;34.10;;;7.30;94.50;;;;;;5060564;28;20409;-70
2021/12/29 00:33:46;;;;;;;56.83;35.37;;;7.30;94.50;;;;;;5069981;28;20255;-70
2021/12/29 00:36:31;;;;;;;52.80;34.20;;;7.40;94.50;;;;;;5067191;28;20220;-70
2021/12/29 00:39:17;;;;;;;50.07;34.17;;;7.40;94.50;;;;;;5070516;28;20211;-70
2021/12/29 00:42:04;;;;;;;52.80;33.03;;;7.40;94.50;;;;;;5071351;28;20270;-70
2021/12/29 00:44:50;;;;;;;47.97;32.17;;;7.40;94.50;;;;;;5065368;28;20221;-70
2021/12/29 00:47:18;;;;;;;52.17;32.77;;;7.40;94.40;;;;;;5053566;28;20263;-70
2021/12/29 00:49:46;;;;;;;49.57;32.37;;;7.50;94.40;;;;;;5054704;28;20241;-70
2021/12/29 00:52:14;;;;;;;49.77;32.70;;;7.40;94.30;;;;;;5051436;28;20211;-70
2021/12/29 00:54:43;;;;;;;53.13;33.87;;;7.50;94.40;;;;;;5053046;28;20217;-70
2021/12/29 00:57:10;;;;;;;53.63;32.37;;;7.50;94.50;;;;;;5053208;28;20206;-70
2021/12/29 00:59:38;;;;;;;52.13;32.47;;;7.50;94.40;;;;;;5052534;28;20196;-70
2021/12/29 01:02:05;;;;;;;53.17;32.97;;;7.50;94.40;;;;;;5055762;28;20210;-70
2021/12/29 01:04:34;;;;;;;48.60;32.13;;;7.50;94.50;;;;;;5054338;28;20197;-70
2021/12/29 01:07:01;;;;;;;49.30;31.33;;;7.50;94.50;;;;;;5057174;28;20197;-70
2021/12/29 01:09:29;;;;;;;48.60;32.23;;;7.50;94.50;;;;;;5058878;28;20234;-70
2021/12/29 01:11:58;;;;;;;54.77;33.80;;;7.50;94.50;;;;;;5054221;28;20204;-70
2021/12/29 01:14:26;;;;;;;53.03;33.20;;;7.50;94.50;;;;;;5058814;28;20228;-70
2021/12/29 01:16:53;;;;;;;55.87;35.50;;;7.60;94.60;;;;;;5056036;28;20678;-70
2021/12/29 01:19:29;;;;;;;53.37;35.03;;;7.60;94.60;;;;;;5055229;28;20212;-70
2021/12/29 01:21:59;;;;;;;57.20;35.50;;;7.60;94.60;;;;;;5056838;28;20626;-70
2021/12/29 01:24:27;;;;;;;59.03;35.53;;;7.70;94.70;;;;;;5056136;28;20238;-71
2021/12/29 01:26:56;;;;;;;58.73;34.87;;;7.70;94.70;;;;;;5057421;28;20217;-71
2021/12/29 01:29:26;;;;;;;57.60;34.77;;;7.70;94.70;;;;;;5056663;28;20229;-70
2021/12/29 01:31:53;;;;;;;61.70;34.53;;;7.70;94.70;;;;;;5060546;28;20237;-71
2021/12/29 01:34:20;;;;;;;66.07;37.70;;;7.70;94.70;;;;;;5059027;28;20225;-70
2021/12/29 01:36:47;;;;;;;60.23;35.33;;;7.70;94.70;;;;;;5058891;28;20289;-70
2021/12/29 01:39:16;;;;;;;61.43;34.80;;;7.80;94.80;;;;;;5059333;28;20240;-70
2021/12/29 01:41:46;;;;;;;64.57;34.53;;;7.80;94.60;;;;;;5058682;28;20213;-70
2021/12/29 01:44:14;;;;;;;62.17;36.23;;;7.70;94.40;;;;;;5059054;28;20224;-70
2021/12/29 01:46:43;;;;;;;60.60;34.90;;;7.70;94.70;;;;;;5062483;28;20209;-70
2021/12/29 01:49:10;;;;;;;65.67;35.67;;;7.70;94.40;;;;;;5061047;28;20209;-70
2021/12/29 01:51:47;;;;;;;59.77;34.83;;;7.70;94.50;;;;;;5059206;28;20561;-70
2021/12/29 01:54:23;;;;;;;63.73;36.80;;;7.60;94.60;;;;;;5043642;28;20240;-70
2021/12/29 01:56:56;;;;;;;56.07;32.97;;;7.60;94.70;;;;;;5062095;28;20205;-70
2021/12/29 01:59:25;;;;;;;56.40;33.60;;;7.60;94.80;;;;;;5062001;28;20202;-70
2021/12/29 02:01:53;;;;;;;59.23;33.23;;;7.50;94.80;;;;;;5061850;28;20224;-70
2021/12/29 02:04:20;;;;;;;54.33;33.07;;;7.50;94.80;;;;;;5061264;28;20202;-71
2021/12/29 02:06:49;;;;;;;62.20;36.60;;;7.40;94.80;;;;;;5059183;28;20216;-70
2021/12/29 02:09:16;;;;;;;58.90;35.37;;;7.40;94.90;;;;;;5063741;28;20228;-70
2021/12/29 02:11:45;;;;;;;65.53;35.60;;;7.50;95.20;;;;;;5045003;28;20228;-70
2021/12/29 02:14:12;;;;;;;65.00;36.00;;;7.50;95.00;;;;;;5056697;28;20687;-70
2021/12/29 02:16:40;;;;;;;73.70;37.17;;;7.50;95.00;;;;;;5039906;28;20304;-70
2021/12/29 02:19:10;;;;;;;63.80;36.10;;;7.50;95.00;;;;;;5056647;28;20205;-70
2021/12/29 02:21:39;;;;;;;66.30;36.73;;;7.50;95.00;;;;;;5050938;28;20198;-70
2021/12/29 02:26:39;;;;;;;77.20;40.93;;;7.50;95.10;;;;;;5055766;28;20232;-70
2021/12/29 02:29:12;;;;;;;81.63;43.13;;;7.60;95.10;;;;;;5066665;28;20209;-70
2021/12/29 02:31:40;;;;;;;80.13;40.63;;;7.60;95.20;;;;;;5063721;28;20537;-70
2021/12/29 02:34:10;;;;;;;84.10;42.23;;;7.60;95.20;;;;;;5066153;28;20227;-70
2021/12/29 02:36:43;;;;;;;96.60;43.23;;;7.60;95.20;;;;;;5057145;28;20686;-70
2021/12/29 02:39:17;;;;;;;99.27;46.17;;;7.60;95.30;;;;;;5053767;28;20194;-70
2021/12/29 02:41:52;;;;;;;101.87;45.90;;;7.60;95.30;;;;;;5052836;28;20205;-70
2021/12/29 02:44:25;;;;;;;98.37;44.73;;;7.60;95.40;;;;;;5051605;28;20227;-71
2021/12/29 02:46:55;;;;;;;113.87;46.83;;;7.60;95.40;;;;;;5069244;28;20729;-70
2021/12/29 02:49:22;;;;;;;106.57;48.10;;;7.60;95.50;;;;;;5068928;28;20200;-70
2021/12/29 02:51:50;;;;;;;110.37;44.23;;;7.70;95.60;;;;;;5068985;28;20209;-70
2021/12/29 02:54:17;;;;;;;119.03;48.07;;;7.70;95.60;;;;;;5069344;28;20223;-70
2021/12/29 02:56:48;;;;;;;119.80;49.63;;;7.70;95.60;;;;;;5046213;28;20206;-70
2021/12/29 02:59:16;;;;;;;120.63;46.67;;;7.70;95.70;;;;;;5051075;28;20205;-70
2021/12/29 03:01:44;;;;;;;113.20;43.50;;;7.70;95.70;;;;;;5057381;28;20654;-70
2021/12/29 03:04:11;;;;;;;111.70;46.43;;;7.70;95.70;;;;;;5067004;28;20194;-70
2021/12/29 03:06:39;;;;;;;119.43;46.07;;;7.70;95.70;;;;;;5059237;28;20538;-71
2021/12/29 03:09:08;;;;;;;119.63;44.53;;;7.70;95.80;;;;;;5049105;28;20240;-70
2021/12/29 03:11:36;;;;;;;121.40;46.50;;;7.70;95.80;;;;;;5067681;28;20320;-70
2021/12/29 03:14:04;;;;;;;137.73;48.07;;;7.80;95.80;;;;;;5067341;28;20218;-70
2021/12/29 03:16:33;;;;;;;133.57;46.63;;;7.70;95.80;;;;;;5066049;28;20197;-70
2021/12/29 03:19:02;;;;;;;160.90;45.83;;;7.80;95.80;;;;;;5065524;28;20205;-70
2021/12/29 03:21:31;;;;;;;168.47;45.27;;;7.80;95.80;;;;;;5064948;28;20216;-70
2021/12/29 03:23:59;;;;;;;151.73;43.10;;;7.80;95.80;;;;;;5066422;28;20261;-70
2021/12/29 03:26:26;;;;;;;162.60;43.23;;;7.80;95.70;;;;;;5069404;28;20224;-70
2021/12/29 03:28:54;;;;;;;140.57;41.70;;;7.90;95.70;;;;;;5067538;28;20634;-70
2021/12/29 03:31:21;;;;;;;125.57;42.80;;;7.90;95.70;;;;;;5061014;28;20251;-70
2021/12/29 03:33:49;;;;;;;156.03;40.97;;;7.90;95.70;;;;;;5066137;28;20331;-70
2021/12/29 03:36:18;;;;;;;104.87;38.13;;;7.90;95.60;;;;;;5063229;28;20194;-70
2021/12/29 03:38:48;;;;;;;85.43;38.57;;;7.80;95.60;;;;;;5061043;28;20209;-70
2021/12/29 03:41:18;;;;;;;112.67;37.53;;;7.80;95.50;;;;;;5061571;28;20232;-70
2021/12/29 03:43:46;;;;;;;103.97;35.97;;;7.80;95.50;;;;;;5061543;28;20251;-71
2021/12/29 03:46:15;;;;;;;84.00;36.03;;;7.80;95.50;;;;;;5065593;28;20474;-70
2021/12/29 03:48:44;;;;;;;103.43;35.27;;;7.80;95.50;;;;;;5065470;28;20217;-70
2021/12/29 03:51:11;;;;;;;90.23;34.60;;;7.70;95.50;;;;;;5062643;28;20198;-70
2021/12/29 03:53:39;;;;;;;79.70;33.67;;;7.70;95.50;;;;;;5061773;28;20231;-70
2021/12/29 03:56:07;;;;;;;81.17;34.97;;;7.70;95.50;;;;;;5063250;28;20195;-70
2021/12/29 03:58:35;;;;;;;87.47;35.37;;;7.70;95.50;;;;;;5062848;28;20213;-70
2021/12/29 04:01:09;;;;;;;80.97;35.47;;;7.70;95.70;;;;;;5063690;28;20549;-70
2021/12/29 04:03:37;;;;;;;79.00;35.40;;;7.70;95.40;;;;;;5080093;28;20201;-70
2021/12/29 04:06:05;;;;;;;100.43;33.30;;;7.70;95.50;;;;;;5062885;28;20207;-71
2021/12/29 04:08:32;;;;;;;91.70;32.43;;;7.70;95.40;;;;;;5061846;28;20208;-70
2021/12/29 04:10:59;;;;;;;79.57;30.33;;;7.70;95.40;;;;;;5061163;28;20200;-70
2021/12/29 04:13:26;;;;;;;66.57;32.20;;;7.70;95.30;;;;;;5059818;28;20245;-70
2021/12/29 04:15:54;;;;;;;98.33;31.67;;;7.60;95.20;;;;;;5060520;28;20708;-70
2021/12/29 04:18:26;;;;;;;71.77;29.97;;;7.60;95.20;;;;;;5060290;28;20202;-70
2021/12/29 04:20:57;;;;;;;91.27;29.83;;;7.60;95.20;;;;;;5059401;28;20638;-70
2021/12/29 04:23:29;;;;;;;109.00;30.07;;;7.50;95.10;;;;;;5058925;28;20231;-70
2021/12/29 04:25:58;;;;;;;145.77;31.57;;;7.50;95.10;;;;;;5067301;28;20206;-71
2021/12/29 04:28:26;;;;;;;157.73;32.87;;;7.50;95.00;;;;;;5053067;28;20572;-70
2021/12/29 04:30:56;;;;;;;97.87;32.10;;;7.50;95.00;;;;;;5060395;28;20202;-71
2021/12/29 04:33:25;;;;;;;66.23;30.67;;;7.40;95.00;;;;;;5058179;28;20418;-70
2021/12/29 04:35:53;;;;;;;90.90;30.67;;;7.40;95.00;;;;;;5057620;28;20201;-70
2021/12/29 04:38:21;;;;;;;63.90;30.23;;;7.30;94.90;;;;;;5056662;28;20202;-70
2021/12/29 04:40:50;;;;;;;67.13;29.50;;;7.30;95.00;;;;;;5055746;28;20636;-70
2021/12/29 04:43:18;;;;;;;73.67;29.87;;;7.30;95.00;;;;;;5037766;28;20225;-70
2021/12/29 04:45:45;;;;;;;81.83;30.40;;;7.30;95.00;;;;;;5053870;28;20228;-70
2021/12/29 04:48:14;;;;;;;160.43;30.77;;;7.30;95.00;;;;;;5037200;28;20223;-70
2021/12/29 04:50:50;;;;;;;65.33;29.83;;;7.20;95.00;;;;;;5070044;28;20213;-70
2021/12/29 04:53:21;;;;;;;105.17;30.63;;;7.30;95.00;;;;;;5070538;28;20501;-70
2021/12/29 04:55:49;;;;;;;77.47;28.33;;;7.20;94.90;;;;;;5071833;28;20194;-70
2021/12/29 04:58:20;;;;;;;160.07;32.77;;;7.20;94.80;;;;;;5071994;28;20192;-71
2021/12/29 05:00:50;;;;;;;104.53;29.47;;;7.20;94.80;;;;;;5066394;28;20236;-70
2021/12/29 05:03:18;;;;;;;76.23;29.83;;;7.10;94.80;;;;;;5051919;28;20220;-70
2021/12/29 05:08:38;;;;;;;102.20;31.10;;;7.00;94.90;;;;;;5070335;28;20673;-70
2021/12/29 05:11:08;;;;;;;81.10;28.03;;;7.00;95.00;;;;;;5070190;28;20215;-70
2021/12/29 05:13:38;;;;;;;89.37;31.00;;;7.00;95.00;;;;;;5065041;28;20228;-70
2021/12/29 05:16:06;;;;;;;59.67;27.87;;;7.00;95.10;;;;;;5054634;28;20204;-70
2021/12/29 05:18:36;;;;;;;69.27;29.37;;;6.90;95.10;;;;;;5053833;28;20209;-70
2021/12/29 05:21:05;;;;;;;68.93;28.97;;;7.00;95.20;;;;;;5054444;28;20208;-70
2021/12/29 05:23:32;;;;;;;55.83;27.77;;;6.90;95.10;;;;;;5051849;28;20273;-70
2021/12/29 05:25:59;;;;;;;117.77;33.10;;;6.90;95.10;;;;;;5051972;28;20229;-71
2021/12/29 05:28:26;;;;;;;69.03;28.90;;;6.90;95.10;;;;;;5051880;28;20206;-70
2021/12/29 05:30:54;;;;;;;69.63;29.90;;;6.90;95.20;;;;;;5059479;28;20206;-70
2021/12/29 05:33:22;;;;;;;70.27;28.20;;;6.90;95.20;;;;;;5065359;28;20283;-70
2021/12/29 05:35:49;;;;;;;76.20;29.20;;;6.80;95.10;;;;;;5059183;28;20208;-70
2021/12/29 05:38:16;;;;;;;122.27;30.73;;;6.80;95.10;;;;;;5057855;28;20240;-70
2021/12/29 05:40:44;;;;;;;85.93;31.57;;;6.80;95.30;;;;;;5058033;28;20210;-70
2021/12/29 05:43:11;;;;;;;92.37;29.40;;;6.80;95.40;;;;;;5058446;28;20551;-70
2021/12/29 05:45:38;;;;;;;60.43;29.73;;;6.80;95.50;;;;;;5057070;28;20220;-70
2021/12/29 05:48:06;;;;;;;62.97;26.93;;;6.80;95.60;;;;;;5063469;28;20248;-70
2021/12/29 05:50:33;;;;;;;63.77;27.27;;;6.80;95.60;;;;;;5062938;28;20211;-70
2021/12/29 05:53:02;;;;;;;60.33;28.63;;;6.80;95.60;;;;;;5062757;28;20211;-70
2021/12/29 05:55:29;;;;;;;50.83;26.97;;;6.80;95.60;;;;;;5066932;28;20233;-70
2021/12/29 05:57:57;;;;;;;58.47;28.73;;;6.80;95.50;;;;;;5062807;28;20207;-70
2021/12/29 06:00:25;;;;;;;59.57;27.70;;;6.80;95.50;;;;;;5059423;28;20208;-70
2021/12/29 06:02:54;;;;;;;46.77;25.27;;;6.80;95.50;;;;;;5060465;28;20220;-70
2021/12/29 06:05:23;;;;;;;54.33;24.67;;;6.80;95.40;;;;;;5060626;28;20324;-70
2021/12/29 06:07:50;;;;;;;45.13;25.57;;;6.80;95.30;;;;;;5051149;28;20719;-70
2021/12/29 06:10:18;;;;;;;46.50;24.83;;;6.70;95.30;;;;;;5040439;28;20219;-70
2021/12/29 06:12:45;;;;;;;50.90;24.90;;;6.70;95.30;;;;;;5054315;28;20215;-70
2021/12/29 06:15:12;;;;;;;48.53;25.07;;;6.70;95.20;;;;;;5057734;28;20230;-70
2021/12/29 06:17:39;;;;;;;48.50;24.03;;;6.70;95.20;;;;;;5057441;28;20215;-70
2021/12/29 06:20:10;;;;;;;59.83;24.53;;;6.60;95.20;;;;;;5057029;28;20624;-70
2021/12/29 06:22:37;;;;;;;54.20;23.87;;;6.60;95.20;;;;;;5063006;28;20547;-70
2021/12/29 06:25:06;;;;;;;162.50;27.47;;;6.60;95.10;;;;;;5064061;28;20236;-70
2021/12/29 06:27:33;;;;;;;145.20;27.53;;;6.60;95.20;;;;;;5063829;28;20724;-70
2021/12/29 06:30:00;;;;;;;95.93;26.37;;;6.50;95.10;;;;;;5064526;28;20200;-70
2021/12/29 06:32:27;;;;;;;103.07;25.53;;;6.50;95.10;;;;;;5064749;28;20521;-70
2021/12/29 06:34:55;;;;;;;81.70;24.07;;;6.40;94.80;;;;;;5062204;28;20390;-70
2021/12/29 06:37:23;;;;;;;69.50;25.60;;;6.40;94.80;;;;;;5065056;28;20220;-70
2021/12/29 06:39:50;;;;;;;60.17;25.73;;;6.30;94.90;;;;;;5064234;28;20216;-70
2021/12/29 06:42:18;;;;;;;48.30;25.27;;;6.30;95.00;;;;;;5058209;28;20220;-70
2021/12/29 06:44:47;;;;;;;46.70;25.80;;;6.30;95.20;;;;;;5054271;28;20212;-70
2021/12/29 06:47:14;;;;;;;49.70;25.83;;;6.30;95.40;;;;;;5052236;28;20228;-70
2021/12/29 06:49:41;;;;;;;69.47;25.13;;;6.30;95.50;;;;;;5052938;28;20235;-70
2021/12/29 06:52:09;;;;;;;73.50;25.40;;;6.30;95.60;;;;;;5051478;28;20214;-70
2021/12/29 06:54:37;;;;;;;51.13;23.33;;;6.40;95.50;;;;;;5051944;28;20244;-70
2021/12/29 06:57:05;;;;;;;132.93;25.53;;;6.40;95.30;;;;;;5052143;28;20201;-70
2021/12/29 06:59:32;;;;;;;95.50;23.73;;;6.30;95.30;;;;;;5059376;28;20200;-71
2021/12/29 07:02:00;;;;;;;64.70;21.60;;;6.30;95.20;;;;;;5058405;28;20255;-70
2021/12/29 07:04:27;;;;;;;87.83;23.70;;;6.30;95.30;;;;;;5056705;28;20653;-70
2021/12/29 07:06:55;;;;;;;118.07;24.13;;;6.30;95.40;;;;;;5060020;28;20205;-70
2021/12/29 07:09:22;;;;;;;74.17;22.43;;;6.20;95.30;;;;;;5054105;28;20225;-70
2021/12/29 07:11:51;;;;;;;77.63;23.33;;;6.20;95.40;;;;;;5055999;28;20210;-70
2021/12/29 07:14:20;;;;;;;79.47;22.03;;;6.20;95.40;;;;;;5059723;28;20228;-70
2021/12/29 07:16:49;;;;;;;65.60;22.33;;;6.10;95.50;;;;;;5056239;28;20217;-70
2021/12/29 07:19:18;;;;;;;68.37;22.67;;;6.10;95.50;;;;;;5063001;28;20630;-70
2021/12/29 07:21:47;;;;;;;68.17;23.87;;;6.10;95.70;;;;;;5071386;28;20204;-70
2021/12/29 07:24:16;;;;;;;94.70;27.30;;;6.10;95.80;;;;;;5069819;28;20625;-70
2021/12/29 07:26:43;;;;;;;40.17;23.53;;;6.10;95.80;;;;;;5069758;28;20224;-70
2021/12/29 07:29:11;;;;;;;66.17;24.17;;;6.10;95.90;;;;;;5054022;28;20218;-70
2021/12/29 07:31:42;;;;;;;58.53;25.23;;;6.20;96.00;;;;;;5060421;28;20210;-70
2021/12/29 07:34:20;;;;;;;96.73;25.73;;;6.20;96.00;;;;;;5059616;28;20234;-70
2021/12/29 07:36:47;;;;;;;48.77;24.23;;;6.30;96.00;;;;;;5060664;28;20196;-70
2021/12/29 07:39:15;;;;;;;62.40;26.00;;;6.30;96.00;;;;;;5059879;28;20626;-70
2021/12/29 07:41:43;;;;;;;90.13;26.60;;;6.40;96.00;;;;;;5059792;28;20205;-70
2021/12/29 07:44:18;;;;;;;54.17;24.10;;;6.40;96.00;;;;;;5059133;28;20679;-70
2021/12/29 07:46:48;;;;;;;51.67;27.57;;;6.50;95.90;;;;;;5065726;28;20243;-70
2021/12/29 07:49:15;;;;;;;63.93;32.13;;;6.50;95.70;;;;;;5053677;28;20209;-70
2021/12/29 07:51:43;;;;;;;52.77;30.23;;;6.50;95.60;;;;;;5061851;28;20209;-70
2021/12/29 07:54:13;;;;;;;68.30;31.03;;;6.50;95.80;;;;;;5061836;28;20225;-70
2021/12/29 07:56:41;;;;;;;63.63;29.30;;;6.50;95.90;;;;;;5071671;28;20303;-70
2021/12/29 07:59:09;;;;;;;62.17;29.10;;;6.60;96.00;;;;;;5062419;28;20411;-70
2021/12/29 08:01:36;;;;;;;61.43;29.60;;;6.60;96.00;;;;;;5062992;28;20287;-70
2021/12/29 08:04:03;;;;;;;87.93;30.07;;;6.70;96.00;;;;;;5062798;28;20232;-70
2021/12/29 08:06:30;;;;;;;62.00;28.43;;;6.80;95.90;;;;;;5061752;28;20543;-70
2021/12/29 08:08:57;;;;;;;73.90;29.63;;;6.80;95.80;;;;;;5061815;28;20314;-70
2021/12/29 08:11:24;;;;;;;71.17;28.10;;;6.80;95.80;;;;;;5061897;28;20205;-70
2021/12/29 08:13:52;;;;;;;59.07;26.70;;;6.80;95.90;;;;;;5063484;28;20220;-70
2021/12/29 08:16:19;;;;;;;68.07;28.07;;;6.80;95.40;;;;;;5064959;28;20240;-70
2021/12/29 08:18:46;;;;;;;105.33;27.53;;;6.80;95.40;;;;;;5063916;28;20675;-70
2021/12/29 08:21:13;;;;;;;55.07;26.67;;;6.80;95.50;;;;;;5060916;28;20216;-70
2021/12/29 08:23:40;;;;;;;63.80;27.40;;;6.80;95.60;;;;;;5064536;28;20244;-70
2021/12/29 08:26:07;;;;;;;65.20;26.00;;;6.80;95.60;;;;;;5059774;28;20655;-70
2021/12/29 08:28:34;;;;;;;66.00;25.17;;;6.80;95.60;;;;;;5059370;28;20210;-70
2021/12/29 08:31:03;;;;;;;68.23;26.43;;;6.80;95.30;;;;;;5044889;28;20308;-70
2021/12/29 08:33:30;;;;;;;57.13;27.30;;;6.80;95.20;;;;;;5066155;28;20217;-70
2021/12/29 08:35:57;;;;;;;85.97;27.33;;;6.80;95.30;;;;;;5061161;28;20235;-70
2021/12/29 08:38:24;;;;;;;58.20;28.33;;;6.80;95.50;;;;;;5058103;28;20204;-70
2021/12/29 08:40:51;;;;;;;51.30;25.80;;;6.90;95.60;;;;;;5068235;28;20632;-70
2021/12/29 08:43:19;;;;;;;51.40;24.57;;;6.90;95.70;;;;;;5067692;28;20205;-70
2021/12/29 08:45:46;;;;;;;47.83;24.27;;;7.00;95.50;;;;;;5068010;28;20205;-69
2021/12/29 08:48:15;;;;;;;42.73;24.00;;;7.00;95.30;;;;;;5069495;28;20704;-69
2021/12/29 08:50:42;;;;;;;51.50;24.77;;;7.00;95.40;;;;;;5068439;28;20642;-69
2021/12/29 08:53:11;;;;;;;64.80;26.47;;;7.00;95.40;;;;;;5055243;28;20215;-70
2021/12/29 08:55:46;;;;;;;40.27;24.90;;;7.10;95.50;;;;;;5053357;28;20221;-70
2021/12/29 08:58:15;;;;;;;51.87;24.67;;;7.20;95.40;;;;;;5054466;28;20209;-70
2021/12/29 09:00:43;;;;;;;43.97;25.17;;;7.20;95.30;;;;;;5067593;28;20262;-70
2021/12/29 09:03:11;;;;;;;46.50;24.00;;;7.20;95.30;;;;;;5066249;28;20198;-69
2021/12/29 09:05:38;;;;;;;54.80;26.40;;;7.30;95.30;;;;;;5063556;28;20319;-70
2021/12/29 09:08:05;;;;;;;39.60;23.83;;;7.30;95.20;;;;;;5052546;28;20353;-69
2021/12/29 09:10:33;;;;;;;44.57;24.20;;;7.30;94.90;;;;;;5051588;28;20680;-70
2021/12/29 09:13:01;;;;;;;36.03;22.10;;;7.30;94.70;;;;;;5052337;28;20656;-69
2021/12/29 09:15:28;;;;;;;47.23;23.90;;;7.20;94.70;;;;;;5058471;28;20588;-70
2021/12/29 09:17:55;;;;;;;44.27;24.97;;;7.20;94.60;;;;;;5052612;28;20212;-70
2021/12/29 09:20:27;;;;;;;42.83;23.30;;;7.10;94.60;;;;;;5053080;28;20221;-70
2021/12/29 09:23:01;;;;;;;38.77;23.83;;;7.10;94.80;;;;;;5055016;28;20199;-70
2021/12/29 09:25:35;;;;;;;46.47;24.33;;;7.20;95.00;;;;;;5068033;28;20651;-70
2021/12/29 09:28:02;;;;;;;42.70;24.03;;;7.20;95.20;;;;;;5070108;28;20615;-71
2021/12/29 09:30:33;;;;;;;38.73;23.57;;;7.30;95.30;;;;;;5066977;28;20327;-70
2021/12/29 09:33:01;;;;;;;40.33;25.53;;;7.30;95.10;;;;;;5070586;28;20666;-70
2021/12/29 09:35:28;;;;;;;39.43;24.87;;;7.30;95.10;;;;;;5067082;28;20246;-70
2021/12/29 09:38:01;;;;;;;37.53;23.00;;;7.40;95.10;;;;;;5065601;28;20205;-69
2021/12/29 09:40:29;;;;;;;59.77;36.50;;;7.40;95.10;;;;;;5055823;28;20215;-69
2021/12/29 09:42:56;;;;;;;100.77;30.00;;;7.50;95.10;;;;;;5064771;28;20227;-71
2021/12/29 09:45:24;;;;;;;134.70;73.17;;;7.60;95.10;;;;;;5064852;28;20286;-70
2021/12/29 09:47:51;;;;;;;252.90;159.17;;;7.60;95.00;;;;;;5056370;28;20202;-70
2021/12/29 09:50:20;;;;;;;186.17;113.60;;;7.60;94.90;;;;;;5063069;28;20286;-70
2021/12/29 09:52:47;;;;;;;142.43;89.27;;;7.60;94.90;;;;;;5059421;28;20309;-70
2021/12/29 09:55:18;;;;;;;183.60;106.53;;;7.70;94.90;;;;;;5059864;28;20235;-71
2021/12/29 09:57:51;;;;;;;165.67;100.30;;;7.80;94.80;;;;;;5063450;28;20216;-71
2021/12/29 10:00:32;;;;;;;188.70;108.33;;;7.80;94.60;;;;;;5061259;28;20365;-71
2021/12/29 10:03:03;;;;;;;133.33;82.03;;;7.80;94.60;;;;;;5068399;28;20210;-71
2021/12/29 10:05:32;;;;;;;253.53;155.43;;;7.90;94.50;;;;;;5067320;28;20657;-71
2021/12/29 10:08:02;;;;;;;155.37;105.77;;;7.90;94.40;;;;;;5060852;28;20537;-69
2021/12/29 10:10:31;;;;;;;71.77;51.33;;;7.90;94.40;;;;;;5061631;28;20232;-69
2021/12/29 10:12:59;;;;;;;133.17;72.40;;;8.00;94.40;;;;;;5059962;28;20209;-69
2021/12/29 10:15:33;;;;;;;67.67;36.53;;;8.00;94.30;;;;;;5061199;28;20303;-69
2021/12/29 10:18:12;;;;;;;50.10;30.60;;;8.00;93.90;;;;;;5061714;28;20213;-69
2021/12/29 10:20:53;;;;;;;98.93;47.63;;;8.00;93.70;;;;;;5063111;28;20202;-69
2021/12/29 10:23:26;;;;;;;40.00;24.53;;;7.90;93.70;;;;;;5060364;28;20301;-69
2021/12/29 10:25:56;;;;;;;36.33;21.63;;;7.90;93.60;;;;;;5063164;28;20220;-69
2021/12/29 10:28:29;;;;;;;43.93;22.47;;;7.80;93.60;;;;;;5060507;28;20663;-69
2021/12/29 10:31:05;;;;;;;34.93;23.43;;;7.80;93.70;;;;;;5066718;28;20205;-69
2021/12/29 10:33:38;;;;;;;39.63;24.30;;;7.70;93.80;;;;;;5059405;28;20584;-69
2021/12/29 10:36:22;;;;;;;38.53;23.97;;;7.70;94.00;;;;;;5058278;28;20232;-69
2021/12/29 10:39:07;;;;;;;35.33;22.77;;;7.80;94.20;;;;;;5065858;28;20547;-69
2021/12/29 10:41:52;;;;;;;44.23;24.80;;;7.80;94.50;;;;;;5065473;28;20222;-69
2021/12/29 10:44:30;;;;;;;41.83;27.17;;;8.00;94.60;;;;;;5065701;28;21061;-69
2021/12/29 10:47:00;;;;;;;42.47;27.53;;;8.10;94.40;;;;;;5066286;28;20206;-69
2021/12/29 10:49:29;;;;;;;44.93;27.13;;;8.10;94.20;;;;;;5067019;28;20209;-69
2021/12/29 10:51:58;;;;;;;116.97;75.27;;;8.10;94.20;;;;;;5067151;28;20284;-70
2021/12/29 10:54:28;;;;;;;57.97;36.23;;;8.10;94.30;;;;;;5067784;28;20294;-69
2021/12/29 10:57:05;;;;;;;44.33;27.97;;;8.10;94.20;;;;;;5067972;28;20231;-69
2021/12/29 10:59:36;;;;;;;42.93;26.17;;;8.20;94.00;;;;;;5050733;28;20564;-69
2021/12/29 11:02:07;;;;;;;45.17;28.17;;;8.20;94.00;;;;;;5048262;28;20205;-69
2021/12/29 11:04:35;;;;;;;43.83;28.57;;;8.20;93.80;;;;;;5053180;28;20202;-69
2021/12/29 11:07:04;;;;;;;80.93;52.47;;;8.10;93.80;;;;;;5056552;28;20230;-69
2021/12/29 11:09:36;;;;;;;52.53;36.67;;;8.10;93.80;;;;;;5067101;28;20205;-69
2021/12/29 11:12:13;;;;;;;42.17;24.50;;;8.20;94.00;;;;;;5050876;28;20578;-69
2021/12/29 11:14:43;;;;;;;40.70;24.77;;;8.20;93.90;;;;;;5054708;28;20232;-69
2021/12/29 11:17:20;;;;;;;40.50;24.87;;;8.20;93.70;;;;;;5056008;28;20712;-69
2021/12/29 11:19:56;;;;;;;38.70;25.43;;;8.20;93.80;;;;;;5052274;28;20190;-69
2021/12/29 11:22:29;;;;;;;38.83;25.07;;;8.20;93.90;;;;;;5057092;28;20205;-69
2021/12/29 11:24:58;;;;;;;40.60;26.27;;;8.20;93.90;;;;;;5053317;28;20234;-69
2021/12/29 11:27:27;;;;;;;39.53;25.47;;;8.20;93.60;;;;;;5053393;28;20290;-69
2021/12/29 11:29:58;;;;;;;46.97;27.20;;;8.20;93.60;;;;;;5053892;28;20606;-69
2021/12/29 11:32:32;;;;;;;39.53;25.93;;;8.20;93.80;;;;;;5065467;28;20531;-69
2021/12/29 11:35:20;;;;;;;44.73;26.77;;;8.10;93.90;;;;;;5071288;28;20217;-69
2021/12/29 11:37:53;;;;;;;45.13;29.00;;;8.10;93.90;;;;;;5067086;28;20228;-69
2021/12/29 11:40:32;;;;;;;43.47;27.70;;;8.10;93.90;;;;;;5048795;28;20289;-69
2021/12/29 11:42:59;;;;;;;41.40;28.07;;;8.10;94.00;;;;;;5063201;28;20198;-69
2021/12/29 11:45:27;;;;;;;39.33;27.63;;;8.10;94.00;;;;;;5062816;28;20221;-69
2021/12/29 11:47:54;;;;;;;48.83;28.90;;;8.10;94.20;;;;;;5064947;28;20222;-69
2021/12/29 11:50:27;;;;;;;42.00;27.27;;;8.10;94.20;;;;;;5067050;28;20232;-69
2021/12/29 11:53:12;;;;;;;46.03;29.00;;;8.20;94.20;;;;;;5066753;28;20222;-69
2021/12/29 11:55:53;;;;;;;44.70;29.23;;;8.20;94.20;;;;;;5059099;28;20233;-69
2021/12/29 11:58:31;;;;;;;43.40;29.17;;;8.20;94.10;;;;;;5059696;28;20217;-69
2021/12/29 12:01:23;;;;;;;40.90;27.53;;;8.20;94.20;;;;;;5059183;28;20224;-69
2021/12/29 12:04:00;;;;;;;42.10;26.40;;;8.20;94.10;;;;;;5063107;28;20228;-69
2021/12/29 12:06:31;;;;;;;41.73;28.07;;;8.20;94.20;;;;;;5060500;28;20206;-69
2021/12/29 12:09:10;;;;;;;44.10;29.17;;;8.30;94.30;;;;;;5060959;28;20692;-69
2021/12/29 12:11:42;;;;;;;42.17;27.93;;;8.30;94.30;;;;;;5064820;28;20660;-70
2021/12/29 12:14:21;;;;;;;46.17;30.17;;;8.30;94.30;;;;;;5062167;28;20213;-69
2021/12/29 12:17:05;;;;;;;43.43;28.67;;;8.40;94.50;;;;;;5068964;28;20230;-69
2021/12/29 12:19:33;;;;;;;44.63;28.77;;;8.50;94.60;;;;;;5061865;28;20190;-69
2021/12/29 12:22:12;;;;;;;48.10;29.53;;;8.50;94.30;;;;;;5060847;28;20201;-69
2021/12/29 12:24:57;;;;;;;46.97;29.17;;;8.50;93.70;;;;;;5063181;28;20272;-69
2021/12/29 12:27:28;;;;;;;44.17;28.73;;;8.50;93.60;;;;;;5063985;28;20275;-69
2021/12/29 12:30:17;;;;;;;45.73;30.83;;;8.50;93.60;;;;;;5063588;28;20329;-69
2021/12/29 12:32:44;;;;;;;47.03;30.17;;;8.50;93.80;;;;;;5064764;28;20296;-69
2021/12/29 12:35:13;;;;;;;38.83;28.80;;;8.50;94.00;;;;;;5060279;28;20241;-69
2021/12/29 12:37:45;;;;;;;50.47;31.33;;;8.50;94.10;;;;;;5060307;28;20202;-69
2021/12/29 12:40:23;;;;;;;44.27;29.67;;;8.60;94.10;;;;;;5058037;28;20616;-69
2021/12/29 12:43:22;;;;;;;46.43;30.10;;;8.70;94.10;;;;;;5057495;28;20710;-69
2021/12/29 12:45:52;;;;;;;44.40;29.83;;;8.80;94.10;;;;;;5051463;28;20642;-69
2021/12/29 12:48:29;;;;;;;44.90;30.73;;;8.80;94.10;;;;;;5053245;28;20216;-69
2021/12/29 12:51:00;;;;;;;44.63;30.90;;;8.90;94.00;;;;;;5055309;28;20292;-69
2021/12/29 12:53:37;;;;;;;49.33;30.93;;;9.00;93.80;;;;;;5054435;28;20220;-69
2021/12/29 12:56:08;;;;;;;51.73;33.57;;;8.90;93.40;;;;;;5054644;28;20221;-69